Time;durP1;ratioP1;P1;durP2;ratioP2;P2;SDS_P1;SDS_P2;PMS_P1;PMS_P2;Temp;Humidity;BMP_temperature;BMP_pressure;BME280_temperature;BME280_humidity;BME280_pressure;Samples;Min_cycle;Max_cycle;Signal;HPM_P1;HPM_P2
2023/02/21 02:15:45;;;;;;;4.45;3.60;;;16.90;45.60;;;;;;5077034;28;20226;-72
2023/02/21 02:18:42;;;;;;;4.25;3.20;;;16.90;45.70;;;;;;5063420;28;20230;-73
2023/02/21 02:21:42;;;;;;;3.67;3.30;;;16.90;45.60;;;;;;5085009;28;20597;-72
2023/02/21 02:24:40;;;;;;;3.80;3.30;;;16.90;45.60;;;;;;5071612;28;20788;-72
2023/02/21 02:27:45;;;;;;;5.55;3.35;;;16.90;45.70;;;;;;5071292;28;20253;-69
2023/02/21 02:30:52;;;;;;;4.45;3.53;;;16.90;45.60;;;;;;5069434;28;20197;-72
2023/02/21 02:34:02;;;;;;;3.42;3.03;;;16.90;45.60;;;;;;5069153;28;20294;-71
2023/02/21 02:36:35;;;;;;;4.10;3.05;;;16.90;45.60;;;;;;5077196;28;20228;-72
2023/02/21 02:39:11;;;;;;;3.60;2.95;;;16.90;45.60;;;;;;5070528;28;20219;-73
2023/02/21 02:41:49;;;;;;;3.47;2.70;;;16.90;45.60;;;;;;5066524;28;20194;-70
2023/02/21 02:44:23;;;;;;;4.10;2.78;;;16.80;45.50;;;;;;5071332;28;20841;-68
2023/02/21 02:46:52;;;;;;;3.22;2.83;;;16.90;45.50;;;;;;5075419;28;20240;-67
2023/02/21 02:49:22;;;;;;;3.83;2.92;;;16.90;45.60;;;;;;5071153;28;20219;-71
2023/02/21 02:51:52;;;;;;;3.05;2.75;;;16.80;45.50;;;;;;5083713;28;20190;-69
2023/02/21 02:54:19;;;;;;;4.03;3.00;;;16.90;45.60;;;;;;5071205;28;20307;-70
2023/02/21 02:56:47;;;;;;;3.38;2.83;;;16.90;45.50;;;;;;5076175;28;20726;-72
2023/02/21 02:59:19;;;;;;;2.97;2.53;;;16.80;45.50;;;;;;5070381;28;20222;-72
2023/02/21 03:02:28;;;;;;;3.60;3.30;;;16.80;45.50;;;;;;5057176;28;20725;-70
2023/02/21 03:05:08;;;;;;;2.88;2.55;;;16.80;45.50;;;;;;5032579;28;20261;-72
2023/02/21 03:07:43;;;;;;;3.28;2.97;;;16.80;45.50;;;;;;5020275;28;20188;-69
2023/02/21 03:10:17;;;;;;;3.17;2.70;;;16.80;45.50;;;;;;5038850;28;20241;-67
2023/02/21 03:12:48;;;;;;;3.45;2.40;;;16.80;45.50;;;;;;5038550;28;20275;-68
2023/02/21 03:15:19;;;;;;;2.97;2.65;;;16.80;45.60;;;;;;5037383;28;20574;-70
2023/02/21 03:17:51;;;;;;;2.70;2.50;;;16.80;45.60;;;;;;5030560;28;20228;-73
2023/02/21 03:20:20;;;;;;;3.13;2.83;;;16.80;45.60;;;;;;5039371;28;20661;-72
2023/02/21 03:22:50;;;;;;;2.70;2.50;;;16.80;45.50;;;;;;5038701;28;20204;-72
2023/02/21 03:25:18;;;;;;;3.05;2.55;;;16.80;45.50;;;;;;5029393;28;20200;-70
2023/02/21 03:27:45;;;;;;;3.28;2.70;;;16.80;45.50;;;;;;5027651;28;20204;-70
2023/02/21 03:30:14;;;;;;;3.08;2.67;;;16.80;45.50;;;;;;5021834;28;20208;-72
2023/02/21 03:32:45;;;;;;;3.08;2.72;;;16.80;45.50;;;;;;5031862;28;20269;-70
2023/02/21 03:35:13;;;;;;;2.88;2.67;;;16.70;45.40;;;;;;5046800;28;20233;-73
2023/02/21 03:37:42;;;;;;;2.22;2.03;;;16.80;45.50;;;;;;5074075;28;20570;-70
2023/02/21 03:40:15;;;;;;;3.10;2.80;;;16.80;45.50;;;;;;5075653;28;20245;-72
2023/02/21 03:42:42;;;;;;;2.60;2.40;;;16.80;45.50;;;;;;5074474;28;20206;-72
2023/02/21 03:45:10;;;;;;;3.05;2.75;;;16.80;45.50;;;;;;5078442;28;20270;-70
2023/02/21 03:47:37;;;;;;;2.40;2.20;;;16.80;45.50;;;;;;5074612;28;20190;-70
2023/02/21 03:50:04;;;;;;;2.92;2.63;;;16.80;45.50;;;;;;5077416;28;20222;-72
2023/02/21 03:52:32;;;;;;;2.63;2.42;;;16.80;45.50;;;;;;5083925;28;20682;-72
2023/02/21 03:54:59;;;;;;;4.22;2.88;;;16.80;45.50;;;;;;5075903;28;20276;-72
2023/02/21 03:57:27;;;;;;;2.70;2.50;;;16.80;45.50;;;;;;5076504;28;20194;-69
2023/02/21 03:59:54;;;;;;;2.97;2.47;;;16.70;45.40;;;;;;5075017;28;20894;-72
2023/02/21 04:02:21;;;;;;;2.85;2.50;;;16.70;45.40;;;;;;5086473;28;20264;-73
2023/02/21 04:04:49;;;;;;;3.03;2.72;;;16.70;45.40;;;;;;5073774;28;20695;-73
2023/02/21 04:07:16;;;;;;;3.00;2.70;;;16.70;45.40;;;;;;5078429;28;20660;-72
2023/02/21 04:09:44;;;;;;;3.50;3.20;;;16.70;45.40;;;;;;5073410;28;20267;-73
2023/02/21 04:12:11;;;;;;;3.35;2.90;;;16.80;45.50;;;;;;5087813;28;20244;-73
2023/02/21 04:14:40;;;;;;;3.10;2.78;;;16.80;45.50;;;;;;5073527;28;20634;-72
2023/02/21 04:17:07;;;;;;;3.50;3.05;;;16.70;45.40;;;;;;5077851;28;20283;-71
2023/02/21 04:19:34;;;;;;;3.03;2.72;;;16.70;45.50;;;;;;5072628;28;20222;-72
2023/02/21 04:22:01;;;;;;;2.33;2.13;;;16.70;45.50;;;;;;5087355;28;20269;-72
2023/02/21 04:24:28;;;;;;;2.90;2.60;;;16.80;45.50;;;;;;5073910;28;20244;-73
2023/02/21 04:26:55;;;;;;;3.00;2.47;;;16.70;45.50;;;;;;5079007;28;20186;-73
2023/02/21 04:29:22;;;;;;;3.10;2.35;;;16.70;45.50;;;;;;5072968;28;20711;-72
2023/02/21 04:31:51;;;;;;;2.92;2.55;;;16.70;45.50;;;;;;5087028;28;20242;-65
2023/02/21 04:34:18;;;;;;;3.22;2.60;;;16.70;45.50;;;;;;5058731;28;20714;-73
2023/02/21 04:36:45;;;;;;;2.70;2.47;;;16.70;45.50;;;;;;5078788;28;20244;-72
2023/02/21 04:39:12;;;;;;;3.60;3.00;;;16.70;45.50;;;;;;5072911;28;20773;-73
2023/02/21 04:41:40;;;;;;;2.95;2.67;;;16.70;45.50;;;;;;5079469;28;20256;-73
2023/02/21 04:44:07;;;;;;;3.78;2.72;;;16.70;45.50;;;;;;5071643;28;20218;-70
2023/02/21 04:46:34;;;;;;;4.10;3.00;;;16.70;45.50;;;;;;5078467;28;20241;-69
2023/02/21 04:49:03;;;;;;;3.33;2.88;;;16.70;45.50;;;;;;5072511;28;20218;-72
2023/02/21 04:51:30;;;;;;;3.22;2.92;;;16.70;45.50;;;;;;5084908;28;20194;-70
2023/02/21 04:53:57;;;;;;;3.10;2.80;;;16.70;45.50;;;;;;5073280;28;20230;-72
2023/02/21 04:56:26;;;;;;;3.28;2.97;;;16.70;45.50;;;;;;5070712;28;20730;-72
2023/02/21 04:58:54;;;;;;;2.88;2.58;;;16.70;45.50;;;;;;5072870;28;20215;-69
2023/02/21 05:01:22;;;;;;;3.38;2.60;;;16.70;45.50;;;;;;5082695;28;20198;-69
2023/02/21 05:03:49;;;;;;;2.88;2.58;;;16.70;45.50;;;;;;5075846;28;20674;-71
2023/02/21 05:06:23;;;;;;;3.20;2.88;;;16.70;45.50;;;;;;5076589;28;20256;-72
2023/02/21 05:08:51;;;;;;;3.03;2.72;;;16.60;45.40;;;;;;5072769;28;20227;-64
2023/02/21 05:11:19;;;;;;;2.90;2.60;;;16.70;45.50;;;;;;5081202;28;20194;-69
2023/02/21 05:13:47;;;;;;;3.35;3.05;;;16.70;45.60;;;;;;5066172;28;20636;-72
2023/02/21 05:16:14;;;;;;;3.13;2.83;;;16.70;45.50;;;;;;5072613;28;20207;-73
2023/02/21 05:18:42;;;;;;;3.65;3.00;;;16.70;45.50;;;;;;5072039;28;20227;-72
2023/02/21 05:21:10;;;;;;;3.22;2.92;;;16.70;45.50;;;;;;5073016;28;20716;-72
2023/02/21 05:23:39;;;;;;;2.70;2.50;;;16.70;45.50;;;;;;5072366;28;20272;-72
2023/02/21 05:26:08;;;;;;;3.53;3.03;;;16.70;45.50;;;;;;5079016;28;20234;-69
2023/02/21 05:28:36;;;;;;;3.17;2.88;;;16.70;45.50;;;;;;5071267;28;20256;-72
2023/02/21 05:31:04;;;;;;;2.75;2.55;;;16.70;45.50;;;;;;5072774;28;20670;-70
2023/02/21 05:33:31;;;;;;;3.63;2.45;;;16.70;45.50;;;;;;5071889;28;20633;-68
2023/02/21 05:35:59;;;;;;;2.58;2.38;;;16.70;45.50;;;;;;5076768;28;20310;-72
2023/02/21 05:38:27;;;;;;;2.88;2.58;;;16.70;45.50;;;;;;5073845;28;20280;-70
2023/02/21 05:40:55;;;;;;;2.88;2.60;;;16.70;45.60;;;;;;5072185;28;20648;-67
2023/02/21 05:43:22;;;;;;;2.60;2.40;;;16.70;45.50;;;;;;5072173;28;20245;-67
2023/02/21 05:45:49;;;;;;;2.95;2.67;;;16.70;45.60;;;;;;5075212;28;20198;-69
2023/02/21 05:48:16;;;;;;;2.70;2.50;;;16.60;45.50;;;;;;5075824;28;20199;-69
2023/02/21 05:50:44;;;;;;;2.65;2.45;;;16.70;45.60;;;;;;5072453;28;20191;-71
2023/02/21 05:53:11;;;;;;;2.80;2.45;;;16.70;45.50;;;;;;5071070;28;20206;-67
2023/02/21 05:55:38;;;;;;;2.88;2.60;;;16.70;45.50;;;;;;5072886;28;20215;-68
2023/02/21 05:58:06;;;;;;;2.83;2.55;;;16.80;45.50;;;;;;5071628;28;20327;-68
2023/02/21 06:00:34;;;;;;;2.78;2.58;;;16.80;45.50;;;;;;5071371;28;20202;-65
2023/02/21 06:03:01;;;;;;;2.78;2.30;;;16.80;45.40;;;;;;5071631;28;20840;-71
2023/02/21 06:05:28;;;;;;;2.20;2.00;;;16.90;45.50;;;;;;5071145;28;20226;-70
2023/02/21 06:07:55;;;;;;;2.58;2.38;;;16.90;45.40;;;;;;5079001;28;20191;-68
2023/02/21 06:10:22;;;;;;;2.63;2.30;;;17.00;45.40;;;;;;5071372;28;20234;-69
2023/02/21 06:12:49;;;;;;;2.83;2.53;;;17.00;45.40;;;;;;5071670;28;20244;-71
2023/02/21 06:15:18;;;;;;;3.00;2.65;;;17.10;45.40;;;;;;5071294;28;20268;-68
2023/02/21 06:17:45;;;;;;;60.67;5.45;;;17.10;45.40;;;;;;5068764;28;20277;-64
2023/02/21 06:20:15;;;;;;;7.78;4.32;;;17.10;46.00;;;;;;5065180;28;20218;-68
2023/02/21 06:22:42;;;;;;;10.23;5.03;;;17.20;45.20;;;;;;5072249;28;20222;-67
2023/02/21 06:25:10;;;;;;;10.95;5.72;;;17.20;45.40;;;;;;5070921;28;20652;-68
2023/02/21 06:27:38;;;;;;;5.90;5.30;;;17.10;45.40;;;;;;5078556;28;20199;-66
2023/02/21 06:30:06;;;;;;;6.78;5.38;;;17.00;45.40;;;;;;5071146;28;20219;-67
2023/02/21 06:32:35;;;;;;;7.10;5.40;;;16.90;45.40;;;;;;5071816;28;20618;-67
2023/02/21 06:35:02;;;;;;;7.15;5.65;;;16.80;45.30;;;;;;5070550;28;20586;-68
2023/02/21 06:37:29;;;;;;;9.63;5.85;;;16.70;45.30;;;;;;5078235;28;20237;-67
2023/02/21 06:39:56;;;;;;;7.18;5.45;;;16.70;45.30;;;;;;5070736;28;20688;-67
2023/02/21 06:42:24;;;;;;;8.55;6.07;;;16.60;45.30;;;;;;5071678;28;20190;-66
2023/02/21 06:44:52;;;;;;;9.95;5.80;;;16.60;45.30;;;;;;5070946;28;20226;-68
2023/02/21 06:47:19;;;;;;;6.90;5.82;;;16.50;45.20;;;;;;5078179;28;20202;-66
2023/02/21 06:49:48;;;;;;;6.07;5.47;;;16.50;45.30;;;;;;5070877;28;20692;-66
2023/02/21 06:52:15;;;;;;;6.30;5.30;;;16.50;45.30;;;;;;5071800;28;20255;-65
2023/02/21 06:54:42;;;;;;;6.18;5.47;;;16.40;45.20;;;;;;5070899;28;20641;-68
2023/02/21 06:57:09;;;;;;;6.32;5.63;;;16.40;45.20;;;;;;5077274;28;20198;-67
2023/02/21 06:59:36;;;;;;;5.78;5.20;;;16.40;45.20;;;;;;5071396;28;20292;-66
2023/02/21 07:02:03;;;;;;;6.25;5.38;;;16.40;45.20;;;;;;5071744;28;20190;-69
2023/02/21 07:04:31;;;;;;;6.57;5.07;;;16.40;45.20;;;;;;5070695;28;20230;-69
2023/02/21 07:06:59;;;;;;;5.85;4.78;;;16.40;45.20;;;;;;5077554;28;20194;-70
2023/02/21 07:09:26;;;;;;;5.80;4.60;;;16.30;45.30;;;;;;5070544;28;20936;-71
2023/02/21 07:11:53;;;;;;;4.03;3.55;;;16.40;45.50;;;;;;5071802;28;20250;-71
2023/02/21 07:14:20;;;;;;;4.30;3.65;;;16.40;45.40;;;;;;5070874;28;20222;-68
2023/02/21 07:16:49;;;;;;;3.75;3.40;;;16.50;45.40;;;;;;5073716;28;20202;-71
2023/02/21 07:19:16;;;;;;;3.55;2.92;;;16.60;45.30;;;;;;5070381;28;20232;-69
2023/02/21 07:21:44;;;;;;;3.55;3.10;;;16.70;45.40;;;;;;5071522;28;20199;-71
2023/02/21 07:24:13;;;;;;;3.67;2.78;;;16.80;45.30;;;;;;5071015;28;20258;-71
2023/02/21 07:26:40;;;;;;;3.20;2.90;;;16.80;45.20;;;;;;5073617;28;20740;-70
2023/02/21 07:29:08;;;;;;;4.05;3.00;;;16.90;45.20;;;;;;5070611;28;20275;-70
2023/02/21 07:31:35;;;;;;;2.53;2.33;;;17.00;45.20;;;;;;5071375;28;20194;-68
2023/02/21 07:34:02;;;;;;;2.97;2.50;;;17.00;45.10;;;;;;5070299;28;20230;-68
2023/02/21 07:36:29;;;;;;;2.97;2.67;;;17.10;45.10;;;;;;5072990;28;20714;-70
2023/02/21 07:38:56;;;;;;;2.70;2.50;;;17.10;45.00;;;;;;5071030;28;20227;-71
2023/02/21 07:41:25;;;;;;;3.00;2.70;;;17.20;45.10;;;;;;5070896;28;20195;-70
2023/02/21 07:43:53;;;;;;;2.47;2.25;;;17.20;45.00;;;;;;5070530;28;20198;-69
2023/02/21 07:46:20;;;;;;;3.03;2.63;;;17.20;44.90;;;;;;5070987;28;20628;-65
2023/02/21 07:48:47;;;;;;;2.90;2.60;;;17.30;45.00;;;;;;5063777;28;20261;-67
2023/02/21 07:51:14;;;;;;;2.83;2.47;;;17.30;44.90;;;;;;5062241;28;20268;-65
2023/02/21 07:53:41;;;;;;;2.58;2.38;;;17.40;45.00;;;;;;5061789;28;20191;-65
2023/02/21 07:56:08;;;;;;;3.15;2.58;;;17.50;44.90;;;;;;5073208;28;20272;-65
2023/02/21 07:58:37;;;;;;;2.05;1.90;;;17.50;44.80;;;;;;5074405;28;20631;-66
2023/02/21 08:01:05;;;;;;;2.60;2.33;;;17.60;44.80;;;;;;5063406;28;20223;-64
2023/02/21 08:03:32;;;;;;;5.60;2.67;;;17.70;44.80;;;;;;5072768;28;20187;-64
2023/02/21 08:06:00;;;;;;;3.30;2.78;;;17.70;44.60;;;;;;5072469;28;20222;-65
2023/02/21 08:08:27;;;;;;;3.60;2.40;;;17.80;44.50;;;;;;5076497;28;20214;-65
2023/02/21 08:10:54;;;;;;;2.30;2.10;;;17.80;44.50;;;;;;5072615;28;20301;-65
2023/02/21 08:13:21;;;;;;;4.05;2.42;;;17.90;44.50;;;;;;5065606;28;20199;-65
2023/02/21 08:15:50;;;;;;;2.50;2.30;;;17.90;44.50;;;;;;5071836;28;20579;-64
2023/02/21 08:18:22;;;;;;;4.15;2.45;;;18.00;44.50;;;;;;5074393;28;20723;-66
2023/02/21 08:20:51;;;;;;;2.58;2.38;;;18.10;44.60;;;;;;5072509;28;20306;-64
2023/02/21 08:23:18;;;;;;;2.67;2.47;;;18.10;44.60;;;;;;5072309;28;20691;-63
2023/02/21 08:25:45;;;;;;;2.53;2.33;;;18.20;44.70;;;;;;5072204;28;20614;-65
2023/02/21 08:28:13;;;;;;;3.65;2.60;;;18.20;44.70;;;;;;5072727;28;20675;-65
2023/02/21 08:30:40;;;;;;;5.55;2.50;;;18.30;44.80;;;;;;5072213;28;20284;-63
2023/02/21 08:33:09;;;;;;;3.83;2.63;;;18.30;44.80;;;;;;5071621;28;20202;-65
2023/02/21 08:35:37;;;;;;;3.08;2.78;;;18.40;44.90;;;;;;5072450;28;20230;-65
2023/02/21 08:38:04;;;;;;;2.63;2.42;;;18.40;44.80;;;;;;5069627;28;20741;-63
2023/02/21 08:40:31;;;;;;;2.60;2.40;;;18.40;44.80;;;;;;5068641;28;20273;-63
2023/02/21 08:43:00;;;;;;;6.68;2.60;;;18.40;44.80;;;;;;5068487;28;20225;-66
2023/02/21 08:45:29;;;;;;;4.22;2.67;;;18.40;44.80;;;;;;5069257;28;20225;-66
2023/02/21 08:47:56;;;;;;;8.02;3.10;;;18.40;44.80;;;;;;5071517;28;20729;-65
2023/02/21 08:50:26;;;;;;;3.22;2.72;;;18.40;44.80;;;;;;5072390;28;20214;-64
2023/02/21 08:52:54;;;;;;;4.53;3.13;;;18.50;44.90;;;;;;5073087;28;20194;-69
2023/02/21 08:55:21;;;;;;;3.35;2.97;;;18.50;45.00;;;;;;5071964;28;20229;-63
2023/02/21 08:57:50;;;;;;;3.33;3.00;;;18.50;45.00;;;;;;5076423;28;20542;-64
2023/02/21 09:00:18;;;;;;;4.40;2.80;;;18.60;45.00;;;;;;5072352;28;20710;-64
2023/02/21 09:02:46;;;;;;;3.53;3.08;;;18.60;45.00;;;;;;5072540;28;20720;-66
2023/02/21 09:05:15;;;;;;;7.43;2.80;;;18.60;45.00;;;;;;5071298;28;20233;-69
2023/02/21 09:07:44;;;;;;;3.22;2.92;;;18.60;45.00;;;;;;5075601;28;20628;-68
2023/02/21 09:10:12;;;;;;;5.07;2.95;;;18.70;45.10;;;;;;5071669;28;20219;-68
2023/02/21 09:12:39;;;;;;;4.82;3.20;;;18.70;45.00;;;;;;5072384;28;20244;-67
2023/02/21 09:15:07;;;;;;;4.97;2.78;;;18.70;45.00;;;;;;5071344;28;20676;-68
2023/02/21 09:17:35;;;;;;;3.58;2.75;;;18.70;45.00;;;;;;5074139;28;20236;-68
2023/02/21 09:20:05;;;;;;;3.22;2.92;;;18.80;45.10;;;;;;5071186;28;20218;-68
2023/02/21 09:22:32;;;;;;;4.40;2.53;;;18.80;45.00;;;;;;5072405;28;20285;-69
2023/02/21 09:25:02;;;;;;;3.75;2.85;;;18.80;44.70;;;;;;5071736;28;20227;-69
2023/02/21 09:27:36;;;;;;;3.47;3.13;;;18.70;44.80;;;;;;5074161;28;20190;-69
2023/02/21 09:30:06;;;;;;;3.70;3.30;;;18.70;44.80;;;;;;5071305;28;20317;-67
2023/02/21 09:32:34;;;;;;;3.45;3.00;;;18.80;45.00;;;;;;5070814;28;20194;-69
2023/02/21 09:35:01;;;;;;;3.30;2.90;;;18.80;44.90;;;;;;5073354;28;20239;-71
2023/02/21 09:37:28;;;;;;;4.22;3.20;;;18.90;45.00;;;;;;5074043;28;20194;-69
2023/02/21 09:39:57;;;;;;;5.93;3.67;;;18.80;44.90;;;;;;5071338;28;20215;-70
2023/02/21 09:42:31;;;;;;;3.42;2.95;;;18.80;44.90;;;;;;5071812;28;20190;-70
2023/02/21 09:45:08;;;;;;;4.13;3.60;;;18.90;44.90;;;;;;5071358;28;20695;-69
2023/02/21 09:47:39;;;;;;;3.90;3.50;;;18.90;44.80;;;;;;5074660;28;20193;-70
2023/02/21 09:50:12;;;;;;;3.75;3.40;;;18.90;44.70;;;;;;5071009;28;20214;-69
2023/02/21 09:52:41;;;;;;;3.50;3.20;;;19.00;44.70;;;;;;5071435;28;20195;-66
2023/02/21 09:55:14;;;;;;;4.35;3.45;;;19.00;44.70;;;;;;5070863;28;20225;-68
2023/02/21 09:57:43;;;;;;;3.75;3.35;;;19.00;44.70;;;;;;5073862;28;20728;-64
2023/02/21 10:00:23;;;;;;;4.00;3.45;;;19.00;44.70;;;;;;5070856;28;20773;-69
2023/02/21 10:02:59;;;;;;;3.80;3.38;;;19.00;44.70;;;;;;5071305;28;20607;-71
2023/02/21 10:05:39;;;;;;;5.72;3.53;;;19.00;44.60;;;;;;5070511;28;20640;-67
2023/02/21 10:08:21;;;;;;;7.55;3.55;;;19.00;44.70;;;;;;5070428;28;20260;-70
2023/02/21 10:10:56;;;;;;;4.47;3.47;;;19.10;44.80;;;;;;5086422;28;20210;-69
2023/02/21 10:13:38;;;;;;;4.00;3.40;;;19.00;44.70;;;;;;5071144;28;20717;-69
2023/02/21 10:16:10;;;;;;;6.72;3.83;;;19.00;44.70;;;;;;5064428;28;20238;-66
2023/02/21 10:18:44;;;;;;;5.78;3.63;;;19.00;44.60;;;;;;5073501;28;20280;-67
2023/02/21 10:21:16;;;;;;;4.45;3.70;;;19.10;44.80;;;;;;5070846;28;20229;-68
2023/02/21 10:23:46;;;;;;;4.28;3.50;;;19.00;44.80;;;;;;5070721;28;20191;-70
2023/02/21 10:26:18;;;;;;;8.18;3.53;;;19.00;44.70;;;;;;5070379;28;20265;-68
2023/02/21 10:28:47;;;;;;;7.38;3.70;;;19.10;44.80;;;;;;5073501;28;20202;-68
2023/02/21 10:31:20;;;;;;;4.13;3.72;;;19.10;44.80;;;;;;5070678;28;20218;-70
2023/02/21 10:33:47;;;;;;;7.53;4.03;;;19.10;44.70;;;;;;5070844;28;20191;-65
2023/02/21 10:36:18;;;;;;;3.95;3.55;;;19.10;44.70;;;;;;5070242;28;20279;-66
2023/02/21 10:38:54;;;;;;;5.13;4.22;;;19.10;44.60;;;;;;5073709;28;20198;-67
2023/02/21 10:41:22;;;;;;;4.40;3.88;;;19.10;44.70;;;;;;5070248;28;20264;-65
2023/02/21 10:43:55;;;;;;;8.55;3.78;;;19.10;44.70;;;;;;5071157;28;20202;-64
2023/02/21 10:46:28;;;;;;;4.72;3.90;;;19.10;44.60;;;;;;5065760;28;20219;-67
2023/02/21 10:49:04;;;;;;;4.43;3.40;;;19.10;44.60;;;;;;5070417;28;20260;-67
2023/02/21 10:51:33;;;;;;;8.48;4.05;;;19.20;44.60;;;;;;5070798;28;20226;-68
2023/02/21 10:54:19;;;;;;;5.22;4.07;;;19.20;44.50;;;;;;5070839;28;20203;-67
2023/02/21 10:56:48;;;;;;;4.40;4.00;;;19.20;44.50;;;;;;5069965;28;20708;-65
2023/02/21 10:59:24;;;;;;;4.75;4.00;;;19.30;44.60;;;;;;5070793;28;20568;-66
2023/02/21 11:01:52;;;;;;;8.00;3.88;;;19.20;44.40;;;;;;5070775;28;20307;-67
2023/02/21 11:04:33;;;;;;;4.55;3.63;;;19.20;44.40;;;;;;5070582;28;20256;-67
2023/02/21 11:07:05;;;;;;;4.75;3.67;;;19.20;44.50;;;;;;5072429;28;20301;-66
2023/02/21 11:09:40;;;;;;;8.15;4.22;;;19.20;44.60;;;;;;5071642;28;20719;-68
2023/02/21 11:12:19;;;;;;;11.82;4.28;;;19.20;44.60;;;;;;5052003;28;20202;-69
2023/02/21 11:15:06;;;;;;;8.77;3.80;;;19.20;44.60;;;;;;5067032;28;20202;-65
2023/02/21 11:17:33;;;;;;;6.30;4.45;;;19.20;44.60;;;;;;5069970;28;20280;-67
2023/02/21 11:20:15;;;;;;;6.38;3.80;;;19.20;44.50;;;;;;5077834;28;20197;-68
2023/02/21 11:22:44;;;;;;;4.72;3.90;;;19.20;44.60;;;;;;5055529;28;20279;-69
2023/02/21 11:25:21;;;;;;;5.00;4.40;;;19.20;44.50;;;;;;5069809;28;20223;-67
2023/02/21 11:28:02;;;;;;;5.10;4.30;;;19.20;44.60;;;;;;5071828;28;20199;-66
2023/02/21 11:30:32;;;;;;;5.28;4.35;;;19.20;44.60;;;;;;5074001;28;20283;-64
2023/02/21 11:33:01;;;;;;;4.97;4.47;;;19.20;44.60;;;;;;5073843;28;20628;-65
2023/02/21 11:35:32;;;;;;;6.88;4.45;;;19.20;44.60;;;;;;5073756;28;20222;-67
2023/02/21 11:38:02;;;;;;;5.60;4.63;;;19.20;44.70;;;;;;5074235;28;20199;-66
2023/02/21 11:40:34;;;;;;;5.03;4.50;;;19.20;44.70;;;;;;5073292;28;20711;-69
2023/02/21 11:43:13;;;;;;;5.63;4.40;;;19.20;44.70;;;;;;5073689;28;20654;-69
2023/02/21 11:45:49;;;;;;;6.30;4.78;;;19.20;44.70;;;;;;5073629;28;20218;-68
2023/02/21 11:48:18;;;;;;;6.45;4.15;;;19.20;44.60;;;;;;5072956;28;20259;-68
2023/02/21 11:50:50;;;;;;;14.63;4.10;;;19.20;44.70;;;;;;5064462;28;20298;-66
2023/02/21 11:53:23;;;;;;;7.32;4.25;;;19.20;44.70;;;;;;5073291;28;20248;-66
2023/02/21 11:55:57;;;;;;;9.00;5.00;;;19.30;44.70;;;;;;5065762;28;20696;-68
2023/02/21 11:58:30;;;;;;;9.10;4.10;;;19.30;44.80;;;;;;5073486;28;20194;-69
2023/02/21 12:01:05;;;;;;;73.78;8.98;;;19.30;45.40;;;;;;5073738;28;20211;-70
2023/02/21 12:04:01;;;;;;;71.80;12.57;;;19.40;44.80;;;;;;5073325;28;20281;-69
2023/02/21 12:06:36;;;;;;;124.93;13.90;;;19.40;44.90;;;;;;5073446;28;20227;-64
2023/02/21 12:09:10;;;;;;;59.88;8.07;;;19.40;44.90;;;;;;5081104;28;20263;-71
2023/02/21 12:11:48;;;;;;;60.92;8.43;;;19.40;45.00;;;;;;5073320;28;20223;-69
2023/02/21 12:14:37;;;;;;;20.48;5.55;;;19.40;44.90;;;;;;5073260;28;20201;-67
2023/02/21 12:17:57;;;;;;;23.05;5.03;;;19.40;44.80;;;;;;5058245;28;20276;-72
2023/02/21 12:20:50;;;;;;;49.28;7.82;;;19.40;44.80;;;;;;5071774;28;20415;-65
2023/02/21 12:23:24;;;;;;;26.00;5.22;;;19.40;44.80;;;;;;5072625;28;20202;-70
2023/02/21 12:26:15;;;;;;;22.23;5.78;;;19.40;44.70;;;;;;5064211;28;20260;-71
2023/02/21 12:28:58;;;;;;;20.75;5.07;;;19.40;44.70;;;;;;5072692;28;20199;-69
2023/02/21 12:31:36;;;;;;;18.60;4.68;;;19.40;44.70;;;;;;5072934;28;20230;-66
2023/02/21 12:34:19;;;;;;;19.40;4.93;;;19.40;44.70;;;;;;5065389;28;20654;-68
2023/02/21 12:37:01;;;;;;;8.77;4.70;;;19.40;44.70;;;;;;5056207;28;20592;-69
2023/02/21 12:39:45;;;;;;;15.35;4.68;;;19.40;44.80;;;;;;5071654;28;20218;-68
2023/02/21 12:42:38;;;;;;;8.23;4.93;;;19.50;45.10;;;;;;5072670;28;20268;-72
2023/02/21 12:45:23;;;;;;;11.32;5.07;;;19.60;45.00;;;;;;5070861;28;20206;-64
2023/02/21 12:47:56;;;;;;;8.43;4.82;;;19.70;45.00;;;;;;5072380;28;20195;-71
2023/02/21 12:50:31;;;;;;;9.77;5.00;;;19.70;45.00;;;;;;5066406;28;20199;-69
2023/02/21 12:53:03;;;;;;;9.65;5.70;;;19.80;45.00;;;;;;5054265;28;20198;-64
2023/02/21 12:55:34;;;;;;;9.95;4.80;;;19.80;44.90;;;;;;5069452;28;20838;-67
2023/02/21 12:58:11;;;;;;;7.85;5.40;;;19.90;44.90;;;;;;5071905;28;20298;-68
2023/02/21 13:00:43;;;;;;;12.35;5.07;;;19.90;44.80;;;;;;5072492;28;20366;-69
2023/02/21 13:03:22;;;;;;;10.77;5.38;;;20.00;44.80;;;;;;5056830;28;20202;-66
2023/02/21 13:05:59;;;;;;;10.50;6.00;;;19.90;44.80;;;;;;5065272;28;20739;-65
2023/02/21 13:08:30;;;;;;;8.57;5.35;;;20.00;44.90;;;;;;5044511;28;20211;-68
2023/02/21 13:11:07;;;;;;;9.82;6.15;;;19.90;44.90;;;;;;5066528;28;20288;-69
2023/02/21 13:13:35;;;;;;;11.73;5.72;;;19.90;45.00;;;;;;5070080;28;20214;-69
2023/02/21 13:16:05;;;;;;;11.57;6.35;;;19.90;45.10;;;;;;5060846;28;20215;-70
2023/02/21 13:18:40;;;;;;;10.98;6.53;;;19.90;45.10;;;;;;5064292;28;20280;-68
2023/02/21 13:21:25;;;;;;;9.15;6.20;;;19.90;45.10;;;;;;5040203;28;20884;-66
2023/02/21 13:27:27;;;;;;;9.65;6.57;;;19.80;45.20;;;;;;5058523;28;21029;-67
2023/02/21 13:30:07;;;;;;;11.10;6.38;;;19.80;45.30;;;;;;5010037;28;20491;-70
2023/02/21 13:32:40;;;;;;;12.65;6.78;;;19.70;45.30;;;;;;4986493;28;20239;-72
2023/02/21 13:35:10;;;;;;;11.70;7.35;;;19.70;45.40;;;;;;5018974;28;20208;-67
2023/02/21 13:37:48;;;;;;;15.23;7.15;;;19.80;46.20;;;;;;5023759;28;20239;-69
2023/02/21 13:40:23;;;;;;;10.75;7.22;;;19.80;45.60;;;;;;5012460;28;20200;-67
2023/02/21 13:43:05;;;;;;;12.73;7.15;;;19.80;45.60;;;;;;5020969;28;20745;-72
2023/02/21 13:45:32;;;;;;;10.75;7.13;;;19.80;45.70;;;;;;4992422;28;20208;-70
2023/02/21 13:48:28;;;;;;;9.75;6.60;;;19.80;45.70;;;;;;5042818;28;20223;-67
2023/02/21 13:50:57;;;;;;;12.10;7.60;;;19.80;45.70;;;;;;5025501;28;20214;-73
2023/02/21 13:53:31;;;;;;;12.40;7.82;;;19.90;46.30;;;;;;5065094;28;20248;-70
2023/02/21 13:56:16;;;;;;;14.05;7.20;;;20.10;45.60;;;;;;5068428;28;20195;-77
2023/02/21 13:58:44;;;;;;;10.52;7.35;;;20.10;45.30;;;;;;5061118;28;20290;-73
2023/02/21 14:01:38;;;;;;;9.63;7.20;;;20.20;45.30;;;;;;5060032;28;20349;-67
2023/02/21 14:04:41;;;;;;;11.60;7.47;;;20.20;45.30;;;;;;5052103;28;20198;-68
2023/02/21 14:07:09;;;;;;;11.75;7.78;;;20.20;45.40;;;;;;5046674;28;20228;-72
2023/02/21 14:09:41;;;;;;;10.45;7.05;;;20.20;45.40;;;;;;5061308;28;20203;-67
2023/02/21 14:12:11;;;;;;;12.43;6.80;;;20.20;45.40;;;;;;5065769;28;20221;-76
2023/02/21 14:14:41;;;;;;;12.30;7.68;;;20.20;45.50;;;;;;5062131;28;20191;-74
2023/02/21 14:17:10;;;;;;;15.80;7.50;;;20.20;45.50;;;;;;5062792;28;20226;-70
2023/02/21 14:19:43;;;;;;;12.05;7.47;;;20.20;45.50;;;;;;5065491;28;20199;-70
2023/02/21 14:22:14;;;;;;;12.38;7.68;;;20.20;45.60;;;;;;5065636;28;20222;-67
2023/02/21 14:24:48;;;;;;;11.85;7.60;;;20.20;46.30;;;;;;5064183;28;20743;-67
2023/02/21 14:27:42;;;;;;;11.70;7.72;;;20.30;45.70;;;;;;5062376;28;20233;-69
2023/02/21 14:30:34;;;;;;;15.20;7.82;;;20.30;45.60;;;;;;5031205;28;20289;-76
2023/02/21 14:33:22;;;;;;;12.98;7.82;;;20.30;45.60;;;;;;5056480;28;20230;-65
2023/02/21 14:36:01;;;;;;;12.05;7.80;;;20.30;45.70;;;;;;5057707;28;20879;-72
2023/02/21 14:38:32;;;;;;;11.18;7.43;;;20.30;45.70;;;;;;5043051;28;20313;-67
2023/02/21 14:41:26;;;;;;;10.73;7.47;;;20.30;45.60;;;;;;5062625;28;20221;-70
2023/02/21 14:44:07;;;;;;;10.93;7.68;;;20.30;45.60;;;;;;5058657;28;20787;-76
2023/02/21 14:47:09;;;;;;;9.88;6.75;;;20.30;45.60;;;;;;5056991;28;21071;-67
2023/02/21 14:50:11;;;;;;;12.80;7.78;;;20.30;45.60;;;;;;5066420;28;21128;-75
2023/02/21 14:52:55;;;;;;;11.73;7.60;;;20.40;45.60;;;;;;5057923;28;20309;-74
2023/02/21 14:55:50;;;;;;;12.57;7.72;;;20.40;45.70;;;;;;5056251;28;20199;-71
2023/02/21 14:58:52;;;;;;;11.55;7.72;;;20.30;45.60;;;;;;5064587;28;20235;-75
2023/02/21 15:01:46;;;;;;;13.60;7.70;;;20.40;45.70;;;;;;5060558;28;20264;-74
2023/02/21 15:04:21;;;;;;;12.63;7.45;;;20.30;45.80;;;;;;5065195;28;20279;-68
2023/02/21 15:07:00;;;;;;;11.93;7.60;;;20.40;45.80;;;;;;5066894;28;20218;-68
2023/02/21 15:09:27;;;;;;;14.43;7.57;;;20.40;45.70;;;;;;5064267;28;20201;-68
2023/02/21 15:11:56;;;;;;;13.43;7.72;;;20.40;45.90;;;;;;5063256;28;20678;-75
2023/02/21 15:14:25;;;;;;;13.35;7.28;;;20.40;45.70;;;;;;5064229;28;20687;-69
2023/02/21 15:16:56;;;;;;;11.13;7.75;;;20.40;46.40;;;;;;5065883;28;20608;-69
2023/02/21 15:19:30;;;;;;;15.35;7.55;;;20.40;45.80;;;;;;5067242;28;20203;-69
2023/02/21 15:22:18;;;;;;;11.25;7.57;;;20.40;45.90;;;;;;5062646;28;20217;-71
2023/02/21 15:25:22;;;;;;;12.82;7.70;;;20.30;45.90;;;;;;5064936;28;20261;-67
2023/02/21 15:28:02;;;;;;;8.65;6.40;;;20.30;45.90;;;;;;5064045;28;20225;-70
2023/02/21 15:30:34;;;;;;;14.13;7.03;;;20.30;46.20;;;;;;5065989;28;21651;-66
2023/02/21 15:33:14;;;;;;;12.00;6.95;;;20.30;46.20;;;;;;5065856;28;20712;-66